Time;durP1;ratioP1;P1;durP2;ratioP2;P2;SDS_P1;SDS_P2;PMS_P1;PMS_P2;Temp;Humidity;BMP_temperature;BMP_pressure;BME280_temperature;BME280_humidity;BME280_pressure;Samples;Min_cycle;Max_cycle;Signal;HPM_P1;HPM_P2
2023/12/10 00:02:12;;;;;;;20.30;4.18;;;8.40;99.90;;;;;;4948606;28;20101;-78
2023/12/10 00:04:39;;;;;;;15.18;4.47;;;8.40;99.90;;;;;;4996306;28;20107;-78
2023/12/10 00:07:05;;;;;;;14.85;3.30;;;8.40;99.90;;;;;;4979384;28;20628;-78
2023/12/10 00:09:30;;;;;;;20.83;3.47;;;8.40;99.90;;;;;;4978214;28;20034;-78
2023/12/10 00:11:56;;;;;;;12.65;2.35;;;8.50;99.90;;;;;;4981226;28;20560;-79
2023/12/10 00:14:23;;;;;;;20.92;4.13;;;8.50;99.90;;;;;;4967737;28;20498;-79
2023/12/10 00:16:49;;;;;;;9.68;2.38;;;8.50;99.90;;;;;;4973817;28;20084;-79
2023/12/10 00:19:15;;;;;;;17.00;3.13;;;8.40;99.90;;;;;;4980043;28;20034;-79
2023/12/10 00:21:40;;;;;;;12.85;2.63;;;8.40;99.90;;;;;;4998368;28;20559;-79
2023/12/10 00:24:06;;;;;;;28.25;3.42;;;8.40;99.90;;;;;;4996808;28;20137;-78
2023/12/10 00:26:32;;;;;;;27.05;3.47;;;8.40;99.90;;;;;;5010935;28;20113;-79
2023/12/10 00:28:57;;;;;;;16.45;2.70;;;8.40;99.90;;;;;;4998229;28;20036;-78
2023/12/10 00:31:23;;;;;;;28.15;4.13;;;8.40;99.90;;;;;;4983720;28;20478;-79
2023/12/10 00:33:48;;;;;;;19.23;3.58;;;8.50;99.90;;;;;;4971578;28;20057;-80
2023/12/10 00:36:15;;;;;;;19.77;3.05;;;8.40;99.90;;;;;;4995978;28;20038;-80
2023/12/10 00:38:42;;;;;;;18.58;1.33;;;8.50;99.90;;;;;;4998815;28;20045;-79
2023/12/10 00:41:08;;;;;;;18.33;2.72;;;8.40;99.90;;;;;;4992078;28;20494;-82
2023/12/10 00:43:34;;;;;;;15.80;3.40;;;8.40;99.90;;;;;;4995417;28;20049;-80
2023/12/10 00:45:59;;;;;;;17.38;3.28;;;8.50;99.90;;;;;;4982807;28;20493;-81
2023/12/10 00:48:25;;;;;;;23.55;3.05;;;8.50;99.90;;;;;;4972845;28;20035;-80
2023/12/10 00:50:51;;;;;;;18.08;4.68;;;8.50;99.90;;;;;;4997380;28;20045;-79
2023/12/10 00:53:16;;;;;;;22.80;3.53;;;8.60;99.90;;;;;;4993482;28;20030;-79
2023/12/10 00:55:44;;;;;;;11.43;2.58;;;8.60;99.90;;;;;;4998099;28;20030;-79
2023/12/10 00:58:09;;;;;;;15.88;4.20;;;8.50;99.90;;;;;;4995707;28;20042;-79
2023/12/10 01:00:35;;;;;;;26.75;4.22;;;8.60;99.90;;;;;;4997012;28;20060;-79
2023/12/10 01:03:03;;;;;;;16.48;2.88;;;8.60;99.90;;;;;;4984147;28;20069;-80
2023/12/10 01:05:29;;;;;;;37.72;4.68;;;8.60;99.90;;;;;;5000763;28;20050;-80
2023/12/10 01:07:55;;;;;;;17.55;4.07;;;8.60;99.90;;;;;;4981425;28;20497;-79
2023/12/10 01:10:20;;;;;;;22.55;3.67;;;8.60;99.90;;;;;;4998586;28;20161;-79
2023/12/10 01:12:46;;;;;;;24.88;3.00;;;8.60;99.90;;;;;;4991190;28;20026;-80
2023/12/10 01:15:12;;;;;;;11.25;1.67;;;8.60;99.90;;;;;;4980958;28;20034;-80
2023/12/10 01:17:37;;;;;;;15.65;2.47;;;8.60;99.90;;;;;;4998146;28;20033;-79
2023/12/10 01:20:06;;;;;;;14.50;1.52;;;8.70;99.90;;;;;;4984470;28;20462;-79
2023/12/10 01:22:32;;;;;;;26.15;4.43;;;8.60;99.90;;;;;;4998209;28;20096;-79
2023/12/10 01:24:58;;;;;;;18.70;2.90;;;8.60;99.90;;;;;;5002050;28;20473;-80
2023/12/10 01:27:23;;;;;;;12.60;2.60;;;8.60;99.90;;;;;;4992592;28;20089;-80
2023/12/10 01:29:49;;;;;;;21.55;3.55;;;8.60;99.90;;;;;;5000439;28;20030;-79
2023/12/10 01:32:15;;;;;;;19.63;4.20;;;8.60;99.90;;;;;;4974224;28;20506;-80
2023/12/10 01:34:43;;;;;;;21.02;3.15;;;8.70;99.90;;;;;;4972517;28;20125;-80
2023/12/10 01:37:09;;;;;;;31.55;3.83;;;8.70;99.90;;;;;;4960353;28;20038;-80
2023/12/10 01:39:35;;;;;;;17.40;3.10;;;8.70;99.90;;;;;;4990985;28;20618;-80
2023/12/10 01:42:01;;;;;;;25.23;2.95;;;8.70;99.90;;;;;;4962175;28;20038;-80
2023/12/10 01:44:26;;;;;;;14.77;2.92;;;8.60;99.90;;;;;;4975763;28;20085;-80
2023/12/10 01:46:53;;;;;;;20.27;4.32;;;8.70;99.90;;;;;;4967162;28;20560;-80
2023/12/10 01:49:19;;;;;;;14.25;2.65;;;8.70;99.90;;;;;;4968478;28;20030;-80
2023/12/10 01:51:44;;;;;;;24.25;3.58;;;8.60;99.90;;;;;;4986647;28;20039;-79
2023/12/10 01:54:22;;;;;;;19.80;3.70;;;8.60;99.90;;;;;;4999612;28;20573;-80
2023/12/10 01:56:50;;;;;;;11.68;3.38;;;8.60;99.90;;;;;;4969494;28;20019;-80
2023/12/10 01:59:19;;;;;;;15.27;2.38;;;8.60;99.90;;;;;;4982858;28;20485;-79
2023/12/10 02:01:46;;;;;;;20.40;3.35;;;8.60;99.90;;;;;;5003073;28;20027;-79
2023/12/10 02:04:12;;;;;;;9.90;1.77;;;8.70;99.90;;;;;;5003854;28;20480;-79
2023/12/10 02:06:38;;;;;;;14.30;2.63;;;8.70;99.90;;;;;;5003467;28;20029;-78
2023/12/10 02:09:10;;;;;;;17.35;3.10;;;8.70;99.90;;;;;;4987776;28;20049;-77
2023/12/10 02:11:36;;;;;;;30.77;6.35;;;8.70;99.90;;;;;;4997172;28;20034;-77
2023/12/10 02:14:03;;;;;;;24.77;3.92;;;8.60;99.90;;;;;;5000136;28;20824;-78
2023/12/10 02:16:28;;;;;;;8.20;2.55;;;8.60;99.90;;;;;;4999208;28;20143;-78
2023/12/10 02:18:54;;;;;;;22.73;3.95;;;8.60;99.90;;;;;;4984334;28;20117;-77
2023/12/10 02:21:19;;;;;;;15.35;3.45;;;8.60;99.90;;;;;;4985400;28;20506;-78
2023/12/10 02:24:04;;;;;;;7.47;1.83;;;8.60;99.90;;;;;;4984926;28;20040;-78
2023/12/10 02:26:30;;;;;;;13.98;2.70;;;8.50;99.90;;;;;;4997091;28;20111;-77
2023/12/10 02:28:56;;;;;;;19.70;2.03;;;8.50;99.90;;;;;;4964672;28;20514;-78
2023/12/10 02:31:21;;;;;;;22.30;3.50;;;8.50;99.90;;;;;;4979920;28;20035;-77
2023/12/10 02:33:47;;;;;;;19.27;4.28;;;8.50;99.90;;;;;;4991315;28;20037;-78
2023/12/10 02:36:13;;;;;;;14.57;4.45;;;8.40;99.90;;;;;;4984944;28;20035;-77
2023/12/10 02:38:38;;;;;;;16.75;2.83;;;8.40;99.90;;;;;;4987873;28;20110;-78
2023/12/10 02:41:05;;;;;;;9.50;1.45;;;8.40;99.90;;;;;;4982911;28;20034;-78
2023/12/10 02:43:31;;;;;;;13.57;3.03;;;8.40;99.90;;;;;;4990772;28;20048;-78
2023/12/10 02:45:57;;;;;;;20.00;3.35;;;8.40;99.90;;;;;;4977124;28;20045;-78
2023/12/10 02:48:23;;;;;;;18.50;2.85;;;8.50;99.90;;;;;;4968584;28;20051;-78
2023/12/10 02:50:49;;;;;;;19.02;1.83;;;8.50;99.90;;;;;;4964849;28;20034;-78
2023/12/10 02:53:15;;;;;;;27.42;4.20;;;8.50;99.90;;;;;;4966958;28;20168;-77
2023/12/10 02:55:41;;;;;;;23.27;2.35;;;8.50;99.90;;;;;;4973091;28;20109;-77
2023/12/10 02:58:07;;;;;;;14.60;2.50;;;8.40;99.90;;;;;;4985260;28;20513;-76
2023/12/10 03:00:32;;;;;;;19.58;2.28;;;8.50;99.90;;;;;;4985167;28;20034;-78
2023/12/10 03:02:58;;;;;;;14.05;3.05;;;8.40;99.90;;;;;;4978803;28;20037;-77
2023/12/10 03:05:24;;;;;;;22.67;4.22;;;8.40;99.90;;;;;;4998482;28;20086;-77
2023/12/10 03:07:50;;;;;;;10.50;2.03;;;8.40;99.90;;;;;;4997464;28;20444;-78
2023/12/10 03:10:16;;;;;;;23.45;3.55;;;8.40;99.90;;;;;;4983551;28;20034;-76
2023/12/10 03:12:41;;;;;;;13.10;2.42;;;8.40;99.90;;;;;;4987385;28;20081;-78
2023/12/10 03:15:07;;;;;;;11.48;3.00;;;8.40;99.90;;;;;;4999868;28;20041;-78
2023/12/10 03:17:33;;;;;;;10.45;2.67;;;8.30;99.90;;;;;;4984941;28;20041;-77
2023/12/10 03:19:58;;;;;;;19.58;3.17;;;8.30;99.90;;;;;;4995577;28;20049;-77
2023/12/10 03:22:24;;;;;;;18.00;2.90;;;8.30;99.90;;;;;;4979921;28;20033;-77
2023/12/10 03:24:49;;;;;;;23.85;2.53;;;8.30;99.90;;;;;;4978357;28;20471;-78
2023/12/10 03:27:15;;;;;;;10.68;2.08;;;8.20;99.90;;;;;;4991289;28;20039;-77
2023/12/10 03:29:40;;;;;;;13.52;2.00;;;8.20;99.90;;;;;;5005110;28;20831;-78
2023/12/10 03:32:06;;;;;;;10.60;2.15;;;8.20;99.90;;;;;;5011836;28;20041;-76
2023/12/10 03:34:32;;;;;;;15.52;2.95;;;8.10;99.90;;;;;;4993677;28;20045;-78
2023/12/10 03:36:57;;;;;;;16.02;2.55;;;8.10;99.90;;;;;;4982033;28;20034;-77
2023/12/10 03:39:23;;;;;;;19.15;2.00;;;8.00;99.90;;;;;;5000234;28;20030;-77
2023/12/10 03:41:49;;;;;;;16.27;2.83;;;7.90;99.90;;;;;;5014005;28;20022;-77
2023/12/10 03:44:15;;;;;;;17.70;3.63;;;7.90;99.90;;;;;;4984358;28;20372;-78
2023/12/10 03:46:40;;;;;;;15.18;2.53;;;7.90;99.90;;;;;;4997106;28;20061;-78
2023/12/10 03:49:06;;;;;;;18.40;1.77;;;7.80;99.90;;;;;;4999016;28;20501;-78
2023/12/10 03:51:31;;;;;;;11.00;2.67;;;7.90;99.90;;;;;;4999233;28;20030;-78
2023/12/10 03:53:57;;;;;;;4.85;1.10;;;7.80;99.90;;;;;;4980440;28;20069;-77
2023/12/10 03:56:23;;;;;;;11.57;2.70;;;7.80;99.90;;;;;;4985842;28;20026;-77
2023/12/10 03:58:48;;;;;;;19.88;2.13;;;7.80;99.90;;;;;;4998843;28;20041;-77
2023/12/10 04:01:14;;;;;;;20.70;1.98;;;7.70;99.90;;;;;;4986265;28;20181;-77
2023/12/10 04:03:39;;;;;;;16.23;2.90;;;7.80;99.90;;;;;;4965403;28;20048;-77
2023/12/10 04:06:05;;;;;;;17.40;1.63;;;7.70;99.90;;;;;;4981901;28;20083;-78
2023/12/10 04:08:32;;;;;;;15.20;2.97;;;7.70;99.90;;;;;;4982841;28;20069;-77
2023/12/10 04:10:58;;;;;;;13.68;2.15;;;7.60;99.90;;;;;;4997485;28;20034;-77
2023/12/10 04:13:23;;;;;;;8.45;2.05;;;7.60;99.90;;;;;;4999853;28;20040;-78
2023/12/10 04:15:49;;;;;;;17.50;2.95;;;7.60;99.90;;;;;;5000313;28;20034;-78
2023/12/10 04:18:14;;;;;;;18.35;2.05;;;7.50;99.90;;;;;;4994358;28;20068;-77
2023/12/10 04:20:42;;;;;;;11.63;1.52;;;7.60;99.90;;;;;;4998023;28;20594;-78
2023/12/10 04:23:07;;;;;;;9.50;1.95;;;7.60;99.90;;;;;;4993701;28;20484;-77
2023/12/10 04:25:33;;;;;;;16.42;3.20;;;7.50;99.90;;;;;;4964780;28;20062;-79
2023/12/10 04:27:59;;;;;;;11.85;2.28;;;7.50;99.90;;;;;;4968927;28;20030;-78
2023/12/10 04:30:26;;;;;;;9.40;2.20;;;7.60;99.90;;;;;;4968204;28;20509;-78
2023/12/10 04:32:55;;;;;;;19.77;3.00;;;7.50;99.90;;;;;;4977971;28;20034;-78
2023/12/10 04:35:20;;;;;;;25.45;2.33;;;7.50;99.90;;;;;;5000849;28;20030;-79
2023/12/10 04:37:46;;;;;;;17.63;2.95;;;7.60;99.90;;;;;;4984400;28;20042;-79
2023/12/10 04:40:12;;;;;;;21.35;2.55;;;7.60;99.90;;;;;;4999085;28;20031;-78
2023/12/10 04:42:41;;;;;;;23.77;4.40;;;7.50;99.90;;;;;;4996245;28;20041;-78
2023/12/10 04:45:08;;;;;;;15.10;1.33;;;7.40;99.90;;;;;;4994336;28;20057;-79
2023/12/10 04:47:34;;;;;;;7.45;1.35;;;7.40;99.90;;;;;;4980119;28;20035;-79
2023/12/10 04:50:02;;;;;;;18.75;3.72;;;7.40;99.90;;;;;;4997083;28;20141;-79
2023/12/10 04:52:30;;;;;;;19.05;3.97;;;7.50;99.90;;;;;;4969497;28;20149;-80
2023/12/10 04:54:57;;;;;;;15.15;2.53;;;7.40;99.90;;;;;;4997863;28;20035;-79
2023/12/10 04:57:23;;;;;;;15.57;2.72;;;7.30;99.90;;;;;;4982886;28;20045;-79
2023/12/10 04:59:48;;;;;;;17.70;2.60;;;7.30;99.90;;;;;;4985515;28;20745;-79
2023/12/10 05:02:14;;;;;;;14.30;3.33;;;7.40;99.90;;;;;;4995442;28;20072;-78
2023/12/10 05:04:39;;;;;;;8.60;1.67;;;7.40;99.90;;;;;;4974357;28;20050;-78
2023/12/10 05:07:05;;;;;;;14.88;3.38;;;7.40;99.90;;;;;;4982459;28;20030;-79
2023/12/10 05:09:32;;;;;;;16.58;2.00;;;7.40;99.90;;;;;;4983714;28;20080;-78
2023/12/10 05:11:57;;;;;;;19.13;3.65;;;7.40;99.90;;;;;;4999542;28;20453;-79
2023/12/10 05:14:24;;;;;;;9.18;2.55;;;7.40;99.90;;;;;;4997515;28;20046;-78
2023/12/10 05:16:49;;;;;;;19.73;2.90;;;7.40;99.90;;;;;;4976434;28;20090;-78
2023/12/10 05:19:15;;;;;;;19.77;3.53;;;7.30;99.90;;;;;;4994053;28;20664;-78
2023/12/10 05:21:40;;;;;;;15.63;2.78;;;7.30;99.90;;;;;;4980025;28;20031;-78
2023/12/10 05:24:06;;;;;;;7.10;2.13;;;7.30;99.90;;;;;;4977434;28;20039;-78
2023/12/10 05:26:31;;;;;;;20.27;2.83;;;7.30;99.90;;;;;;4959242;28;20487;-77
2023/12/10 05:28:57;;;;;;;18.70;3.33;;;7.30;99.90;;;;;;4989960;28;20037;-77
2023/12/10 05:31:22;;;;;;;10.50;1.52;;;7.30;99.90;;;;;;4997667;28;20770;-77
2023/12/10 05:33:48;;;;;;;11.02;2.22;;;7.20;99.90;;;;;;5011272;28;20026;-77
2023/12/10 05:36:15;;;;;;;14.30;2.70;;;7.30;99.90;;;;;;4995828;28;20026;-78
2023/12/10 05:38:40;;;;;;;10.32;2.17;;;7.30;99.90;;;;;;4981346;28;20038;-78
2023/12/10 05:41:06;;;;;;;22.35;2.70;;;7.30;99.90;;;;;;4961368;28;20043;-78
2023/12/10 05:43:31;;;;;;;24.48;4.03;;;7.30;99.90;;;;;;4959431;28;20034;-78
2023/12/10 05:45:57;;;;;;;6.95;1.85;;;7.30;99.90;;;;;;4983158;28;20026;-78
2023/12/10 05:48:22;;;;;;;13.90;2.20;;;7.30;99.90;;;;;;4979461;28;20473;-78
2023/12/10 05:50:48;;;;;;;14.27;2.05;;;7.20;99.90;;;;;;4987336;28;20104;-79
2023/12/10 05:53:14;;;;;;;22.85;2.47;;;7.30;99.90;;;;;;4979212;28;20037;-78
2023/12/10 05:55:39;;;;;;;13.20;3.53;;;7.20;99.90;;;;;;4995854;28;20034;-78
2023/12/10 05:58:05;;;;;;;19.30;3.45;;;7.30;99.90;;;;;;4985521;28;20041;-79
2023/12/10 06:00:31;;;;;;;14.10;2.70;;;7.30;99.90;;;;;;4986454;28;20525;-77
2023/12/10 06:02:56;;;;;;;20.75;3.03;;;7.20;99.90;;;;;;4983705;28;20133;-78
2023/12/10 06:05:22;;;;;;;16.35;3.38;;;7.20;99.90;;;;;;4980673;28;20472;-78
2023/12/10 06:07:47;;;;;;;15.15;3.22;;;7.20;99.90;;;;;;4999796;28;20136;-78
2023/12/10 06:10:13;;;;;;;15.43;2.20;;;7.20;99.90;;;;;;4982708;28;20034;-78
2023/12/10 06:12:39;;;;;;;11.05;1.90;;;7.20;99.90;;;;;;5007713;28;20758;-78
2023/12/10 06:15:04;;;;;;;23.55;3.22;;;7.30;99.90;;;;;;4984708;28;20410;-79
2023/12/10 06:17:30;;;;;;;8.25;1.48;;;7.30;99.90;;;;;;4996802;28;20048;-79
2023/12/10 06:19:56;;;;;;;14.25;2.92;;;7.40;99.90;;;;;;4999475;28;20042;-78
2023/12/10 06:22:21;;;;;;;11.05;2.53;;;7.30;99.90;;;;;;4997528;28;20029;-78
2023/12/10 06:24:47;;;;;;;19.17;3.20;;;7.30;99.90;;;;;;4984351;28;20029;-78
2023/12/10 06:27:13;;;;;;;5.43;1.27;;;7.30;99.90;;;;;;4999356;28;20073;-79
2023/12/10 06:29:39;;;;;;;9.93;2.13;;;7.30;99.90;;;;;;4984487;28;20117;-79
2023/12/10 06:32:05;;;;;;;14.13;2.25;;;7.30;99.90;;;;;;4983365;28;20712;-79
2023/12/10 06:34:30;;;;;;;15.70;2.90;;;7.40;99.90;;;;;;4983065;28;20038;-79
2023/12/10 06:36:56;;;;;;;13.10;2.53;;;7.30;99.90;;;;;;4988679;28;20570;-79
2023/12/10 06:39:22;;;;;;;16.33;2.97;;;7.40;99.90;;;;;;4970091;28;20027;-79
2023/12/10 06:41:47;;;;;;;18.13;2.50;;;7.40;99.90;;;;;;4976911;28;20120;-79
2023/12/10 06:44:20;;;;;;;9.95;2.15;;;7.50;99.90;;;;;;4996439;28;20030;-79
2023/12/10 06:46:46;;;;;;;16.30;3.17;;;7.50;99.90;;;;;;4985576;28;20502;-80
2023/12/10 06:49:12;;;;;;;13.68;2.60;;;7.40;99.90;;;;;;4997740;28;20089;-79
2023/12/10 06:51:38;;;;;;;14.68;1.27;;;7.50;99.90;;;;;;4979797;28;20030;-79
2023/12/10 06:54:03;;;;;;;9.82;1.38;;;7.60;99.90;;;;;;4991271;28;20018;-79
2023/12/10 06:56:29;;;;;;;13.10;2.45;;;7.60;99.90;;;;;;4980205;28;20038;-79
2023/12/10 06:58:55;;;;;;;16.08;2.80;;;7.60;99.90;;;;;;4998175;28;20041;-79
2023/12/10 07:01:20;;;;;;;12.80;1.80;;;7.60;99.90;;;;;;4966782;28;20030;-80
2023/12/10 07:03:46;;;;;;;17.50;2.03;;;7.70;99.90;;;;;;4981317;28;20039;-79
2023/12/10 07:06:12;;;;;;;16.75;2.25;;;7.70;99.90;;;;;;4997062;28;20387;-80
2023/12/10 07:08:38;;;;;;;10.88;2.08;;;7.80;99.90;;;;;;4996554;28;20058;-80
2023/12/10 07:11:10;;;;;;;28.48;4.97;;;7.80;99.90;;;;;;4990706;28;20038;-80
2023/12/10 07:13:36;;;;;;;15.63;2.55;;;7.80;99.90;;;;;;4979022;28;20030;-80
2023/12/10 07:16:01;;;;;;;15.60;2.20;;;7.80;99.90;;;;;;4981790;28;20581;-80
2023/12/10 07:18:27;;;;;;;14.00;2.05;;;7.90;99.90;;;;;;4972461;28;20482;-80
2023/12/10 07:20:52;;;;;;;13.40;2.70;;;7.80;99.90;;;;;;4995397;28;20045;-81
2023/12/10 07:23:18;;;;;;;14.38;2.50;;;7.90;99.90;;;;;;4980678;28;20121;-80
2023/12/10 07:25:44;;;;;;;17.20;2.83;;;7.90;99.90;;;;;;4992999;28;20494;-80
2023/12/10 07:28:09;;;;;;;12.55;1.58;;;7.90;99.90;;;;;;4968627;28;20393;-80
2023/12/10 07:30:35;;;;;;;17.42;2.17;;;7.90;99.90;;;;;;4996995;28;20069;-77
2023/12/10 07:33:01;;;;;;;12.98;2.72;;;8.00;99.90;;;;;;4994435;28;20050;-80
2023/12/10 07:35:26;;;;;;;14.30;2.40;;;8.00;99.90;;;;;;4970822;28;20042;-80
2023/12/10 07:37:52;;;;;;;15.82;4.20;;;8.00;99.90;;;;;;4976977;28;20042;-80
2023/12/10 07:40:18;;;;;;;26.98;3.60;;;8.00;99.90;;;;;;4971231;28;20103;-79
2023/12/10 07:42:43;;;;;;;11.65;3.05;;;8.00;99.90;;;;;;4998348;28;20034;-80
2023/12/10 07:45:09;;;;;;;11.40;3.08;;;8.00;99.90;;;;;;4980192;28;20549;-80
2023/12/10 07:47:35;;;;;;;13.48;3.17;;;8.10;99.90;;;;;;4981839;28;20088;-78
2023/12/10 07:50:00;;;;;;;9.00;1.63;;;8.20;99.90;;;;;;4984019;28;20057;-79
2023/12/10 07:52:26;;;;;;;10.68;2.58;;;8.10;99.90;;;;;;4968924;28;20125;-80
2023/12/10 07:54:52;;;;;;;9.98;1.80;;;8.10;99.90;;;;;;4982403;28;20068;-78
2023/12/10 07:57:17;;;;;;;31.63;3.35;;;8.20;99.90;;;;;;4998287;28;20034;-79
2023/12/10 07:59:43;;;;;;;6.50;1.08;;;8.10;99.90;;;;;;4983028;28;20053;-80
2023/12/10 08:02:08;;;;;;;17.77;3.75;;;8.20;99.90;;;;;;4989735;28;20038;-79
2023/12/10 08:04:34;;;;;;;14.15;3.65;;;8.20;99.90;;;;;;4993460;28;20622;-80
2023/12/10 08:07:00;;;;;;;18.60;3.33;;;8.30;99.90;;;;;;4976625;28;20026;-80
2023/12/10 08:09:25;;;;;;;14.95;2.30;;;8.30;99.90;;;;;;4971970;28;20038;-80
2023/12/10 08:11:51;;;;;;;10.25;2.35;;;8.30;99.90;;;;;;4970848;28;20043;-78
2023/12/10 08:14:17;;;;;;;19.83;3.22;;;8.30;99.90;;;;;;4961199;28;20027;-78
2023/12/10 08:16:42;;;;;;;14.48;3.22;;;8.30;99.90;;;;;;4967923;28;20038;-77
2023/12/10 08:19:08;;;;;;;7.53;2.10;;;8.40;99.90;;;;;;4974557;28;20042;-78
2023/12/10 08:21:33;;;;;;;19.95;3.63;;;8.30;99.90;;;;;;4972535;28;20082;-80
2023/12/10 08:23:59;;;;;;;12.10;2.25;;;8.40;99.90;;;;;;4991315;28;20042;-80
2023/12/10 08:26:25;;;;;;;17.05;3.10;;;8.40;99.90;;;;;;4985859;28;20033;-79
2023/12/10 08:28:50;;;;;;;10.43;1.65;;;8.40;99.90;;;;;;4954043;28;20038;-80
2023/12/10 08:31:16;;;;;;;19.08;2.85;;;8.40;99.90;;;;;;4988328;28;20038;-78
2023/12/10 08:33:44;;;;;;;10.23;1.55;;;8.40;99.90;;;;;;4968054;28;20252;-80
2023/12/10 08:36:10;;;;;;;12.43;1.75;;;8.40;99.90;;;;;;4982205;28;20563;-80
2023/12/10 08:38:35;;;;;;;17.30;2.65;;;8.50;99.90;;;;;;4965707;28;20506;-80
2023/12/10 08:41:01;;;;;;;18.75;3.05;;;8.40;99.90;;;;;;4978980;28;20037;-80
2023/12/10 08:43:27;;;;;;;18.13;3.30;;;8.50;99.90;;;;;;4971381;28;20043;-80
2023/12/10 08:45:54;;;;;;;13.38;1.80;;;8.50;99.90;;;;;;4986664;28;20030;-80
2023/12/10 08:48:19;;;;;;;12.13;2.13;;;8.50;99.90;;;;;;4965597;28;20101;-80
2023/12/10 08:50:45;;;;;;;14.55;3.33;;;8.50;99.90;;;;;;4970810;28;20439;-79
2023/12/10 08:53:11;;;;;;;13.00;2.03;;;8.50;99.90;;;;;;4995122;28;20092;-80
2023/12/10 08:55:36;;;;;;;18.80;2.63;;;8.50;99.90;;;;;;5008499;28;20061;-79
2023/12/10 08:58:02;;;;;;;15.50;3.22;;;8.50;99.90;;;;;;4977596;28;20042;-79
2023/12/10 09:00:27;;;;;;;13.77;2.67;;;8.50;99.90;;;;;;4981819;28;20062;-80
2023/12/10 09:02:53;;;;;;;16.45;2.38;;;8.50;99.90;;;;;;4983921;28;20038;-80
2023/12/10 09:05:19;;;;;;;20.83;2.78;;;8.60;99.90;;;;;;4980170;28;20066;-78
2023/12/10 09:07:45;;;;;;;13.10;2.17;;;8.60;99.90;;;;;;4996463;28;20117;-77
2023/12/10 09:10:10;;;;;;;8.48;1.75;;;8.50;99.90;;;;;;5008830;28;20577;-78
2023/12/10 09:12:36;;;;;;;11.77;3.03;;;8.60;99.90;;;;;;5007219;28;20743;-78
2023/12/10 09:15:02;;;;;;;13.10;1.83;;;8.60;99.90;;;;;;4980669;28;20037;-79
2023/12/10 09:17:28;;;;;;;16.52;3.13;;;8.60;99.90;;;;;;4995290;28;20045;-77
2023/12/10 09:19:53;;;;;;;11.52;1.77;;;8.60;99.90;;;;;;4985039;28;20394;-80
2023/12/10 09:22:19;;;;;;;13.13;2.17;;;8.70;99.90;;;;;;5031841;28;20045;-78
2023/12/10 09:24:45;;;;;;;17.25;3.00;;;8.70;99.90;;;;;;4996461;28;20117;-80
2023/12/10 09:27:10;;;;;;;15.18;2.30;;;8.70;99.90;;;;;;5012614;28;20518;-80
2023/12/10 09:29:38;;;;;;;26.38;3.47;;;8.70;99.90;;;;;;5015982;28;20040;-78
2023/12/10 09:32:05;;;;;;;9.38;1.65;;;8.70;99.90;;;;;;4998069;28;20735;-78
2023/12/10 09:34:32;;;;;;;8.52;2.20;;;8.70;99.90;;;;;;5004091;28;20060;-78
2023/12/10 09:36:58;;;;;;;33.22;3.90;;;8.70;99.90;;;;;;4986271;28;20030;-80
2023/12/10 09:39:24;;;;;;;13.20;2.72;;;8.80;99.90;;;;;;4985977;28;20045;-80
2023/12/10 09:41:50;;;;;;;13.18;2.72;;;8.80;99.90;;;;;;5000026;28;20041;-80
2023/12/10 09:44:15;;;;;;;6.05;1.38;;;8.80;99.90;;;;;;4998004;28;20424;-78
2023/12/10 09:46:41;;;;;;;15.48;3.28;;;8.70;99.90;;;;;;4998032;28;20042;-80
2023/12/10 09:49:06;;;;;;;8.90;1.80;;;8.70;99.90;;;;;;4987142;28;20477;-80
2023/12/10 09:51:32;;;;;;;15.00;2.88;;;8.80;99.90;;;;;;4981307;28;20036;-79
2023/12/10 09:53:58;;;;;;;21.45;3.63;;;8.70;99.90;;;;;;4980908;28;20490;-78
2023/12/10 09:56:24;;;;;;;13.27;2.10;;;8.70;99.90;;;;;;4986619;28;20393;-79
2023/12/10 09:58:49;;;;;;;12.10;2.30;;;8.80;99.90;;;;;;4981320;28;20041;-78
2023/12/10 10:01:15;;;;;;;14.95;2.53;;;8.80;99.90;;;;;;4980172;28;20038;-78
2023/12/10 10:03:41;;;;;;;13.57;3.15;;;8.80;99.90;;;;;;4976498;28;20042;-78
2023/12/10 10:06:08;;;;;;;13.40;2.33;;;8.80;99.90;;;;;;4985678;28;20040;-78
2023/12/10 10:08:33;;;;;;;11.73;2.25;;;8.80;99.90;;;;;;4967748;28;20034;-78
2023/12/10 10:10:59;;;;;;;19.05;3.28;;;8.80;99.90;;;;;;4978024;28;20440;-79
2023/12/10 10:13:25;;;;;;;14.40;3.55;;;8.80;99.90;;;;;;4964723;28;20030;-80
2023/12/10 10:15:51;;;;;;;18.05;2.78;;;8.80;99.90;;;;;;5001576;28;20741;-84
2023/12/10 10:18:16;;;;;;;10.65;1.92;;;8.80;99.90;;;;;;4999409;28;20064;-82
2023/12/10 10:20:42;;;;;;;14.48;2.25;;;8.80;99.90;;;;;;4985733;28;20034;-83
2023/12/10 10:23:10;;;;;;;18.15;3.38;;;8.80;99.90;;;;;;4984726;28;20041;-80
2023/12/10 10:25:36;;;;;;;16.15;3.22;;;8.90;99.90;;;;;;4992802;28;20042;-80
2023/12/10 10:28:06;;;;;;;11.20;2.60;;;8.90;99.90;;;;;;4997189;28;20053;-83
2023/12/10 10:30:32;;;;;;;12.80;2.05;;;8.90;99.90;;;;;;4996278;28;20030;-83
2023/12/10 10:32:58;;;;;;;17.60;2.95;;;9.00;99.90;;;;;;4969376;28;20418;-83
2023/12/10 10:35:24;;;;;;;9.48;1.60;;;9.00;99.90;;;;;;4971743;28;20038;-83
2023/12/10 10:37:50;;;;;;;19.08;2.95;;;8.90;99.90;;;;;;4995645;28;20046;-83
2023/12/10 10:40:16;;;;;;;17.85;2.78;;;9.00;99.90;;;;;;4993026;28;20045;-84
2023/12/10 10:42:44;;;;;;;16.90;2.92;;;9.00;99.90;;;;;;4983970;28;20038;-84
2023/12/10 10:45:10;;;;;;;21.05;4.20;;;9.00;99.90;;;;;;4999807;28;20049;-83
2023/12/10 10:47:36;;;;;;;15.60;2.60;;;9.00;99.90;;;;;;4982308;28;20043;-83
2023/12/10 10:50:02;;;;;;;14.27;2.33;;;9.00;99.90;;;;;;5000732;28;20026;-84
2023/12/10 10:52:29;;;;;;;19.85;2.83;;;9.10;99.90;;;;;;5000335;28;20041;-84
2023/12/10 10:54:55;;;;;;;19.02;2.38;;;9.10;99.90;;;;;;4960007;28;20541;-84
2023/12/10 10:57:31;;;;;;;10.25;2.50;;;9.10;99.90;;;;;;4975283;28;20180;-84
2023/12/10 10:59:57;;;;;;;10.20;2.33;;;9.10;99.90;;;;;;4988260;28;20037;-85
2023/12/10 11:02:23;;;;;;;11.07;1.80;;;9.10;99.90;;;;;;4967598;28;20033;-85
2023/12/10 11:04:49;;;;;;;19.35;2.85;;;9.10;99.90;;;;;;5000542;28;20030;-83
2023/12/10 11:07:15;;;;;;;23.60;3.08;;;9.20;99.90;;;;;;4996741;28;20461;-83
2023/12/10 11:10:00;;;;;;;17.30;2.10;;;9.20;99.90;;;;;;4977602;28;20035;-84
2023/12/10 11:12:45;;;;;;;10.40;2.20;;;9.30;99.90;;;;;;4966557;28;20034;-80
2023/12/10 11:15:13;;;;;;;12.93;2.03;;;9.30;99.90;;;;;;4990393;28;20038;-83
2023/12/10 11:18:08;;;;;;;17.33;2.92;;;9.40;99.90;;;;;;5001900;28;20038;-85
2023/12/10 11:20:38;;;;;;;24.77;2.75;;;9.50;99.90;;;;;;4980995;28;20449;-85
2023/12/10 11:23:13;;;;;;;12.13;1.38;;;9.50;99.90;;;;;;5000537;28;20083;-84
2023/12/10 11:25:39;;;;;;;17.55;2.47;;;9.60;99.90;;;;;;5000534;28;20042;-85
2023/12/10 11:28:10;;;;;;;4.45;1.50;;;9.60;99.90;;;;;;5007062;28;20481;-86
2023/12/10 11:30:39;;;;;;;10.25;1.70;;;9.70;99.90;;;;;;4986268;28;20570;-85
2023/12/10 11:33:05;;;;;;;16.90;2.67;;;9.80;99.90;;;;;;4978667;28;20030;-86
2023/12/10 11:35:32;;;;;;;15.48;2.78;;;9.70;99.90;;;;;;4980929;28;20031;-86
2023/12/10 11:37:57;;;;;;;14.25;2.67;;;9.90;99.90;;;;;;4988877;28;20565;-87
2023/12/10 11:40:23;;;;;;;18.48;2.67;;;9.80;99.90;;;;;;4967786;28;20125;-84
2023/12/10 11:42:49;;;;;;;13.90;4.05;;;9.90;99.90;;;;;;4968600;28;20034;-86
2023/12/10 11:45:15;;;;;;;13.55;2.03;;;9.90;99.90;;;;;;4999617;28;20030;-82
2023/12/10 11:47:42;;;;;;;9.45;2.03;;;9.90;99.90;;;;;;4986203;28;20113;-84
2023/12/10 11:50:08;;;;;;;9.05;1.95;;;10.00;99.90;;;;;;4979042;28;20046;-82
2023/12/10 11:52:34;;;;;;;15.10;3.25;;;10.00;99.90;;;;;;4983595;28;20040;-86
2023/12/10 11:55:00;;;;;;;13.90;2.50;;;10.10;99.90;;;;;;4988702;28;20061;-85
2023/12/10 11:57:26;;;;;;;8.05;2.60;;;10.10;99.90;;;;;;4986262;28;20034;-87
2023/12/10 11:59:51;;;;;;;16.20;2.55;;;10.20;99.90;;;;;;5002601;28;20022;-85
2023/12/10 12:02:17;;;;;;;8.38;1.63;;;10.20;99.90;;;;;;5002906;28;20057;-84
2023/12/10 12:04:43;;;;;;;10.32;2.28;;;10.40;99.90;;;;;;4982969;28;20230;-85
2023/12/10 12:07:24;;;;;;;10.27;1.92;;;10.40;99.90;;;;;;4987665;28;20516;-83
2023/12/10 12:09:51;;;;;;;21.58;3.00;;;10.40;99.90;;;;;;4997758;28;20069;-82
2023/12/10 12:12:18;;;;;;;15.98;2.78;;;10.30;99.90;;;;;;4996712;28;20450;-82
2023/12/10 12:14:43;;;;;;;10.52;2.42;;;10.30;99.90;;;;;;4977531;28;20041;-84
2023/12/10 12:17:09;;;;;;;10.55;2.47;;;10.30;99.90;;;;;;4967053;28;20046;-86
2023/12/10 12:19:34;;;;;;;18.77;2.72;;;10.30;99.90;;;;;;5003156;28;20526;-84
2023/12/10 12:22:00;;;;;;;10.40;2.38;;;10.20;99.90;;;;;;4998328;28;20437;-84
2023/12/10 12:24:26;;;;;;;10.82;2.53;;;10.30;99.90;;;;;;4981169;28;20038;-82
2023/12/10 12:26:52;;;;;;;8.45;1.35;;;10.40;99.90;;;;;;5015491;28;20565;-86
2023/12/10 12:29:18;;;;;;;21.60;1.75;;;10.30;99.90;;;;;;4997342;28;20093;-81
2023/12/10 12:31:43;;;;;;;14.93;2.42;;;10.30;99.90;;;;;;4995340;28;20057;-81
2023/12/10 12:34:09;;;;;;;9.85;2.33;;;10.30;99.90;;;;;;4987005;28;20030;-83
2023/12/10 12:36:35;;;;;;;7.95;1.40;;;10.40;99.90;;;;;;4987090;28;20065;-84
2023/12/10 12:39:03;;;;;;;11.60;2.28;;;10.40;99.90;;;;;;4990376;28;20042;-82
2023/12/10 12:41:29;;;;;;;18.95;3.17;;;10.40;99.90;;;;;;4993015;28;20062;-83
2023/12/10 12:43:54;;;;;;;15.23;1.83;;;10.40;99.90;;;;;;4997954;28;20038;-82